createdAt,value
2023-03-12T00:01:12.388Z,100.00
2023-03-12T00:03:40.867Z,100.00
2023-03-12T00:06:10.807Z,100.00
2023-03-12T00:08:38.845Z,100.00
2023-03-12T00:11:07.007Z,100.00
2023-03-12T00:13:34.390Z,100.00
2023-03-12T00:16:04.724Z,100.00
2023-03-12T00:18:31.932Z,100.00
2023-03-12T00:20:59.104Z,100.00
2023-03-12T00:23:26.845Z,100.00
2023-03-12T00:25:54.046Z,100.00
2023-03-12T00:28:21.214Z,100.00
2023-03-12T00:30:48.531Z,100.00
2023-03-12T00:33:15.610Z,100.00
2023-03-12T00:35:42.754Z,100.00
2023-03-12T00:38:09.851Z,100.00
2023-03-12T00:40:36.929Z,100.00
2023-03-12T00:43:04.081Z,100.00
2023-03-12T00:45:31.249Z,100.00
2023-03-12T00:47:58.405Z,100.00
2023-03-12T00:50:25.651Z,100.00
2023-03-12T00:52:52.804Z,100.00
2023-03-12T00:55:20.001Z,100.00
2023-03-12T00:57:47.244Z,100.00
2023-03-12T01:00:14.816Z,100.00
2023-03-12T01:02:42.027Z,100.00
2023-03-12T01:05:11.563Z,100.00
2023-03-12T01:07:38.883Z,100.00
2023-03-12T01:10:07.204Z,100.00
2023-03-12T01:12:34.609Z,100.00
2023-03-12T01:15:02.136Z,100.00
2023-03-12T01:17:29.615Z,100.00
2023-03-12T01:19:56.803Z,100.00
2023-03-12T01:22:24.005Z,100.00
2023-03-12T01:24:51.125Z,100.00
2023-03-12T01:27:18.338Z,100.00
2023-03-12T01:29:45.569Z,100.00
2023-03-12T01:32:12.694Z,100.00
2023-03-12T01:34:39.924Z,100.00
2023-03-12T01:37:08.083Z,100.00
2023-03-12T01:39:35.330Z,100.00
2023-03-12T01:42:02.521Z,100.00
2023-03-12T01:44:29.920Z,100.00
2023-03-12T01:46:57.170Z,100.00
2023-03-12T01:49:25.727Z,100.00
2023-03-12T01:51:57.360Z,100.00
2023-03-12T01:54:28.039Z,100.00
2023-03-12T01:56:56.723Z,100.00
2023-03-12T01:59:26.041Z,100.00
2023-03-12T02:01:53.216Z,100.00
2023-03-12T02:04:22.411Z,100.00
2023-03-12T02:06:52.476Z,100.00
2023-03-12T02:09:20.837Z,100.00
2023-03-12T02:11:48.046Z,100.00
2023-03-12T02:14:15.439Z,100.00
2023-03-12T02:16:43.231Z,100.00
2023-03-12T02:19:16.964Z,100.00
2023-03-12T02:21:44.055Z,100.00
2023-03-12T02:24:14.283Z,100.00
2023-03-12T02:26:42.087Z,100.00
2023-03-12T02:29:10.925Z,100.00
2023-03-12T02:31:41.852Z,100.00
2023-03-12T02:34:09.730Z,100.00
2023-03-12T02:36:37.046Z,100.00
2023-03-12T02:39:04.881Z,100.00
2023-03-12T02:41:33.241Z,100.00
2023-03-12T02:44:03.974Z,100.00
2023-03-12T02:46:34.528Z,100.00
2023-03-12T02:49:01.724Z,100.00
2023-03-12T02:51:29.088Z,100.00
2023-03-12T02:53:56.327Z,100.00
2023-03-12T02:56:23.961Z,100.00
2023-03-12T02:58:51.368Z,100.00
2023-03-12T03:01:18.754Z,100.00
2023-03-12T03:03:47.199Z,100.00
2023-03-12T03:06:15.063Z,100.00
2023-03-12T03:08:42.573Z,100.00
2023-03-12T03:11:10.013Z,100.00
2023-03-12T03:13:37.321Z,100.00
2023-03-12T03:16:05.159Z,100.00
2023-03-12T03:18:32.325Z,100.00
2023-03-12T03:21:01.109Z,100.00
2023-03-12T03:23:28.204Z,100.00
2023-03-12T03:25:55.404Z,100.00
2023-03-12T03:28:23.848Z,100.00
2023-03-12T03:30:53.260Z,100.00
2023-03-12T03:33:20.570Z,100.00
2023-03-12T03:35:48.687Z,100.00
2023-03-12T03:38:15.962Z,100.00
2023-03-12T03:40:43.201Z,100.00
2023-03-12T03:43:10.412Z,100.00
2023-03-12T03:45:37.611Z,100.00
2023-03-12T03:48:05.538Z,100.00
2023-03-12T03:50:33.121Z,100.00
2023-03-12T03:53:00.335Z,100.00
2023-03-12T03:55:27.493Z,100.00
2023-03-12T03:57:54.733Z,100.00
2023-03-12T04:00:22.411Z,100.00
2023-03-12T04:02:49.764Z,100.00
2023-03-12T04:05:19.813Z,100.00
2023-03-12T04:07:47.354Z,100.00
2023-03-12T04:10:14.985Z,100.00
2023-03-12T04:12:42.253Z,100.00
2023-03-12T04:15:09.691Z,100.00
2023-03-12T04:17:36.981Z,100.00
2023-03-12T04:20:07.739Z,100.00
2023-03-12T04:22:35.060Z,100.00
2023-03-12T04:25:02.414Z,100.00
2023-03-12T04:27:29.703Z,100.00
2023-03-12T04:29:56.985Z,100.00
2023-03-12T04:32:24.213Z,100.00
2023-03-12T04:34:51.525Z,100.00
2023-03-12T04:37:18.843Z,100.00
2023-03-12T04:39:46.082Z,100.00
2023-03-12T04:42:13.201Z,100.00
2023-03-12T04:44:41.407Z,100.00
2023-03-12T04:47:08.545Z,100.00
2023-03-12T04:49:35.861Z,100.00
2023-03-12T04:52:03.053Z,100.00
2023-03-12T04:54:32.411Z,100.00
2023-03-12T04:56:59.539Z,100.00
2023-03-12T04:59:26.807Z,100.00
2023-03-12T05:01:53.891Z,100.00
2023-03-12T05:04:21.012Z,100.00
2023-03-12T05:06:48.405Z,100.00
2023-03-12T05:09:15.541Z,100.00
2023-03-12T05:11:42.748Z,100.00
2023-03-12T05:14:12.292Z,100.00
2023-03-12T05:16:39.598Z,100.00
2023-03-12T05:19:06.892Z,100.00
2023-03-12T05:21:34.097Z,100.00
2023-03-12T05:24:01.570Z,100.00
2023-03-12T05:26:31.969Z,100.00
2023-03-12T05:28:59.809Z,100.00
2023-03-12T05:31:27.401Z,100.00
2023-03-12T05:33:55.206Z,100.00
2023-03-12T05:36:22.387Z,100.00
2023-03-12T05:38:49.532Z,100.00
2023-03-12T05:41:20.697Z,100.00
2023-03-12T05:43:48.017Z,100.00
2023-03-12T05:46:16.038Z,100.00
2023-03-12T05:48:43.418Z,100.00
2023-03-12T05:51:10.647Z,100.00
2023-03-12T05:53:38.134Z,100.00
2023-03-12T05:56:06.369Z,100.00
2023-03-12T05:58:34.202Z,100.00
2023-03-12T06:01:01.926Z,100.00
2023-03-12T06:03:29.170Z,100.00
2023-03-12T06:05:57.604Z,100.00
2023-03-12T06:08:25.051Z,100.00
2023-03-12T06:10:54.567Z,100.00
2023-03-12T06:13:22.894Z,100.00
2023-03-12T06:15:50.418Z,100.00
2023-03-12T06:18:17.558Z,100.00
2023-03-12T06:20:44.655Z,100.00
2023-03-12T06:23:12.004Z,100.00
2023-03-12T06:25:39.197Z,100.00
2023-03-12T06:28:06.731Z,100.00
2023-03-12T06:30:33.811Z,100.00
2023-03-12T06:33:01.000Z,100.00
2023-03-12T06:35:28.228Z,100.00
2023-03-12T06:37:55.334Z,100.00
2023-03-12T06:40:22.559Z,100.00
2023-03-12T06:42:49.799Z,100.00
2023-03-12T06:45:17.523Z,100.00
2023-03-12T06:47:44.739Z,100.00
2023-03-12T06:50:12.171Z,100.00
2023-03-12T06:52:40.925Z,100.00
2023-03-12T06:55:08.363Z,100.00
2023-03-12T06:57:35.534Z,100.00
2023-03-12T07:00:03.650Z,100.00
2023-03-12T07:02:30.893Z,100.00
2023-03-12T07:04:58.415Z,100.00
2023-03-12T07:07:25.723Z,100.00
2023-03-12T07:09:53.007Z,100.00
2023-03-12T07:12:20.253Z,100.00
2023-03-12T07:14:47.498Z,100.00
2023-03-12T07:17:14.607Z,100.00
2023-03-12T07:19:41.700Z,99.63
2023-03-12T07:22:08.847Z,99.23
2023-03-12T07:24:36.047Z,99.28
2023-03-12T07:27:04.460Z,99.34
2023-03-12T07:29:31.536Z,98.78
2023-03-12T07:31:58.833Z,98.35
2023-03-12T07:34:26.113Z,97.71
2023-03-12T07:36:53.558Z,97.35
2023-03-12T07:39:21.016Z,96.74
2023-03-12T07:41:48.405Z,96.04
2023-03-12T07:44:15.500Z,95.35
2023-03-12T07:46:42.788Z,94.82
2023-03-12T07:49:10.564Z,94.55
2023-03-12T07:51:37.804Z,93.20
2023-03-12T07:54:05.284Z,90.77
2023-03-12T07:56:34.380Z,89.77
2023-03-12T07:59:02.695Z,88.17
2023-03-12T08:01:32.690Z,88.39
2023-03-12T08:04:00.275Z,88.83
2023-03-12T08:06:28.041Z,89.44
2023-03-12T08:08:55.554Z,89.94
2023-03-12T08:11:22.760Z,90.24
2023-03-12T08:13:50.038Z,89.74
2023-03-12T08:16:17.305Z,90.34
2023-03-12T08:18:44.762Z,90.52
2023-03-12T08:21:13.104Z,89.79
2023-03-12T08:23:41.943Z,90.02
2023-03-12T08:26:09.186Z,90.03
2023-03-12T08:28:36.336Z,90.11
2023-03-12T08:31:03.543Z,88.99
2023-03-12T08:33:30.573Z,88.25
2023-03-12T08:35:57.980Z,89.16
2023-03-12T08:38:25.317Z,89.60
2023-03-12T08:40:55.383Z,89.56
2023-03-12T08:43:22.430Z,90.47
2023-03-12T08:45:53.763Z,90.15
2023-03-12T08:48:20.835Z,90.24
2023-03-12T08:50:48.006Z,88.65
2023-03-12T08:53:15.742Z,89.12
2023-03-12T08:55:42.886Z,89.58
2023-03-12T08:58:10.096Z,88.26
2023-03-12T09:00:37.321Z,88.68
2023-03-12T09:03:04.556Z,88.53
2023-03-12T09:05:31.702Z,88.36
2023-03-12T09:07:58.772Z,88.07
2023-03-12T09:10:30.366Z,87.33
2023-03-12T09:12:58.132Z,86.44
2023-03-12T09:15:25.311Z,87.10
2023-03-12T09:17:52.300Z,86.52
2023-03-12T09:20:19.302Z,87.33
2023-03-12T09:22:46.424Z,87.50
2023-03-12T09:25:13.547Z,87.60
2023-03-12T09:27:41.968Z,87.40
2023-03-12T09:30:13.126Z,87.70
2023-03-12T09:32:40.220Z,87.73
2023-03-12T09:35:08.083Z,86.41
2023-03-12T09:37:35.240Z,85.78
2023-03-12T09:40:02.578Z,85.03
2023-03-12T09:42:32.605Z,85.15
2023-03-12T09:45:02.606Z,84.57
2023-03-12T09:47:31.125Z,84.35
2023-03-12T09:50:02.103Z,84.49
2023-03-12T09:52:30.780Z,83.75
2023-03-12T09:55:00.915Z,84.31
2023-03-12T09:57:30.272Z,84.22
2023-03-12T09:59:57.593Z,83.56
2023-03-12T10:02:24.964Z,83.38
2023-03-12T10:05:00.135Z,83.45
2023-03-12T10:07:30.489Z,83.04
2023-03-12T10:10:00.676Z,82.87
2023-03-12T10:12:35.106Z,83.15
2023-03-12T10:15:05.329Z,82.96
2023-03-12T10:17:36.095Z,83.01
2023-03-12T10:20:04.242Z,82.87
2023-03-12T10:22:32.614Z,82.33
2023-03-12T10:25:01.132Z,82.06
2023-03-12T10:27:29.625Z,82.65
2023-03-12T10:29:58.058Z,81.83
2023-03-12T10:32:28.241Z,81.04
2023-03-12T10:34:56.788Z,81.84
2023-03-12T10:37:26.879Z,81.86
2023-03-12T10:39:55.848Z,81.69
2023-03-12T10:42:24.884Z,80.85
2023-03-12T10:44:54.201Z,81.48
2023-03-12T10:47:24.209Z,80.68
2023-03-12T10:49:51.485Z,80.84
2023-03-12T10:52:20.550Z,81.04
2023-03-12T10:54:48.970Z,80.81
2023-03-12T10:57:16.591Z,80.75
2023-03-12T10:59:46.255Z,81.26
2023-03-12T11:02:16.395Z,80.92
2023-03-12T11:04:51.229Z,80.37
2023-03-12T11:07:21.695Z,80.67
2023-03-12T11:10:04.688Z,80.36
2023-03-12T11:12:32.044Z,79.52
2023-03-12T11:14:59.455Z,80.08
2023-03-12T11:17:28.055Z,81.31
2023-03-12T11:19:55.228Z,80.36
2023-03-12T11:22:25.783Z,79.37
2023-03-12T11:24:55.866Z,79.41
2023-03-12T11:27:30.699Z,79.10
2023-03-12T11:29:57.875Z,79.22
2023-03-12T11:32:29.800Z,79.50
2023-03-12T11:34:57.114Z,78.21
2023-03-12T11:37:27.309Z,78.40
2023-03-12T11:39:56.282Z,78.64
2023-03-12T11:42:23.737Z,78.55
2023-03-12T11:44:53.791Z,78.49
2023-03-12T11:47:21.325Z,77.87
2023-03-12T11:49:57.853Z,77.83
2023-03-12T11:52:31.908Z,78.30
2023-03-12T11:55:02.046Z,77.79
2023-03-12T11:57:29.648Z,79.40
2023-03-12T12:00:00.921Z,79.62
2023-03-12T12:02:31.187Z,80.22
2023-03-12T12:04:58.750Z,80.62
2023-03-12T12:07:28.852Z,79.08
2023-03-12T12:10:00.339Z,80.77
2023-03-12T12:12:30.837Z,79.47
2023-03-12T12:15:04.431Z,78.93
2023-03-12T12:17:32.074Z,77.85
2023-03-12T12:19:59.750Z,77.50
2023-03-12T12:22:30.509Z,77.46
2023-03-12T12:25:05.783Z,77.44
2023-03-12T12:27:36.392Z,78.21
2023-03-12T12:30:10.776Z,78.44
2023-03-12T12:32:40.935Z,78.06
2023-03-12T12:35:14.008Z,77.81
2023-03-12T12:37:42.534Z,77.12
2023-03-12T12:40:11.014Z,76.63
2023-03-12T12:42:49.007Z,76.86
2023-03-12T12:45:16.368Z,76.83
2023-03-12T12:47:47.956Z,76.51
2023-03-12T12:50:19.901Z,76.13
2023-03-12T12:52:52.689Z,76.97
2023-03-12T12:55:26.193Z,76.25
2023-03-12T12:57:58.806Z,76.23
2023-03-12T13:00:28.915Z,75.90
2023-03-12T13:02:57.146Z,75.94
2023-03-12T13:05:27.242Z,76.31
2023-03-12T13:07:54.504Z,76.51
2023-03-12T13:10:24.837Z,76.35
2023-03-12T13:12:55.872Z,76.60
2023-03-12T13:15:26.293Z,75.74
2023-03-12T13:17:53.618Z,75.96
2023-03-12T13:20:21.385Z,75.58
2023-03-12T13:22:51.696Z,74.12
2023-03-12T13:25:21.932Z,73.05
2023-03-12T13:27:57.713Z,72.69
2023-03-12T13:30:27.996Z,71.93
2023-03-12T13:32:58.194Z,72.17
2023-03-12T13:35:25.573Z,72.88
2023-03-12T13:37:52.998Z,72.88
2023-03-12T13:40:23.084Z,73.24
2023-03-12T13:43:03.072Z,73.08
2023-03-12T13:45:32.413Z,73.47
2023-03-12T13:48:01.138Z,72.51
2023-03-12T13:50:28.980Z,72.74
2023-03-12T13:52:59.050Z,72.35
2023-03-12T13:55:27.817Z,72.73
2023-03-12T13:58:06.810Z,72.42
2023-03-12T14:00:36.931Z,72.63
2023-03-12T14:03:12.393Z,73.08
2023-03-12T14:05:42.693Z,73.51
2023-03-12T14:08:13.214Z,71.70
2023-03-12T14:10:43.724Z,72.08
2023-03-12T14:13:14.029Z,72.01
2023-03-12T14:15:41.594Z,71.85
2023-03-12T14:18:14.492Z,71.47
2023-03-12T14:20:43.327Z,71.85
2023-03-12T14:23:16.624Z,73.10
2023-03-12T14:25:45.227Z,72.14
2023-03-12T14:28:16.504Z,72.29
2023-03-12T14:30:49.402Z,72.15
2023-03-12T14:33:17.068Z,71.44
2023-03-12T14:35:47.211Z,70.38
2023-03-12T14:38:17.653Z,70.53
2023-03-12T14:40:46.572Z,69.03
2023-03-12T14:43:16.674Z,69.33
2023-03-12T14:45:43.878Z,70.65
2023-03-12T14:48:12.365Z,70.38
2023-03-12T14:50:41.010Z,70.24
2023-03-12T14:53:11.544Z,70.58
2023-03-12T14:55:38.706Z,71.62
2023-03-12T14:58:07.619Z,72.43
2023-03-12T15:00:34.783Z,73.76
2023-03-12T15:03:05.015Z,72.71
2023-03-12T15:05:32.191Z,72.54
2023-03-12T15:08:03.134Z,72.32
2023-03-12T15:10:31.776Z,73.30
2023-03-12T15:13:00.267Z,73.83
2023-03-12T15:15:28.467Z,74.04
2023-03-12T15:17:55.701Z,74.97
2023-03-12T15:20:25.010Z,75.60
2023-03-12T15:22:52.812Z,75.17
2023-03-12T15:25:23.718Z,75.74
2023-03-12T15:28:00.724Z,76.06
2023-03-12T15:30:28.374Z,76.41
2023-03-12T15:32:58.489Z,77.19
2023-03-12T15:35:26.508Z,77.90
2023-03-12T15:37:53.867Z,78.67
2023-03-12T15:40:22.679Z,78.12
2023-03-12T15:42:50.298Z,78.20
2023-03-12T15:45:20.263Z,77.54
2023-03-12T15:47:47.839Z,78.42
2023-03-12T15:50:18.035Z,78.78
2023-03-12T15:52:58.604Z,79.20
2023-03-12T15:55:28.907Z,78.90
2023-03-12T15:57:56.798Z,79.21
2023-03-12T16:00:25.244Z,79.88
2023-03-12T16:02:55.449Z,79.37
2023-03-12T16:05:26.166Z,79.76
2023-03-12T16:07:53.876Z,80.22
2023-03-12T16:10:22.965Z,80.04
2023-03-12T16:12:52.051Z,81.04
2023-03-12T16:15:23.181Z,81.07
2023-03-12T16:17:50.356Z,81.73
2023-03-12T16:20:18.231Z,82.01
2023-03-12T16:22:45.487Z,82.25
2023-03-12T16:25:13.697Z,82.59
2023-03-12T16:27:46.424Z,83.02
2023-03-12T16:30:16.611Z,83.64
2023-03-12T16:32:43.795Z,83.88
2023-03-12T16:35:13.673Z,83.77
2023-03-12T16:37:40.831Z,83.78
2023-03-12T16:40:08.550Z,84.45
2023-03-12T16:42:36.253Z,84.76
2023-03-12T16:45:03.659Z,84.95
2023-03-12T16:47:31.089Z,84.98
2023-03-12T16:49:58.763Z,85.76
2023-03-12T16:52:27.255Z,85.84
2023-03-12T16:54:54.452Z,86.62
2023-03-12T16:57:24.993Z,86.47
2023-03-12T16:59:52.081Z,86.36
2023-03-12T17:02:19.568Z,86.93
2023-03-12T17:04:51.412Z,87.32
2023-03-12T17:07:18.589Z,87.90
2023-03-12T17:09:45.650Z,87.49
2023-03-12T17:12:19.232Z,87.16
2023-03-12T17:14:46.601Z,87.19
2023-03-12T17:17:13.581Z,87.60
2023-03-12T17:19:40.608Z,87.86
2023-03-12T17:22:07.676Z,87.93
2023-03-12T17:24:36.108Z,87.63
2023-03-12T17:27:03.244Z,87.95
2023-03-12T17:29:30.308Z,88.65
2023-03-12T17:31:57.394Z,88.54
2023-03-12T17:34:24.619Z,88.60
2023-03-12T17:36:51.684Z,89.29
2023-03-12T17:39:18.729Z,89.53
2023-03-12T17:41:45.930Z,89.84
2023-03-12T17:44:15.100Z,90.17
2023-03-12T17:46:56.527Z,91.07
2023-03-12T17:49:25.794Z,91.27
2023-03-12T17:51:52.941Z,91.09
2023-03-12T17:54:20.068Z,91.81
2023-03-12T17:56:47.124Z,91.77
2023-03-12T17:59:14.624Z,92.28
2023-03-12T18:01:41.805Z,92.00
2023-03-12T18:04:09.007Z,92.41
2023-03-12T18:06:35.967Z,93.41
2023-03-12T18:09:03.303Z,94.38
2023-03-12T18:11:30.319Z,95.09
2023-03-12T18:13:57.372Z,95.55
2023-03-12T18:16:24.593Z,95.73
2023-03-12T18:18:52.915Z,96.45
2023-03-12T18:21:20.575Z,96.89
2023-03-12T18:23:47.660Z,96.49
2023-03-12T18:26:15.080Z,97.30
2023-03-12T18:28:42.845Z,96.99
2023-03-12T18:31:10.327Z,97.25
2023-03-12T18:33:38.478Z,96.80
2023-03-12T18:36:05.888Z,96.89
2023-03-12T18:38:33.298Z,97.08
2023-03-12T18:41:03.937Z,97.49
2023-03-12T18:43:31.720Z,97.78
2023-03-12T18:45:59.077Z,97.62
2023-03-12T18:48:26.209Z,97.55
2023-03-12T18:50:53.873Z,97.75
2023-03-12T18:53:21.124Z,97.38
2023-03-12T18:55:51.176Z,97.74
2023-03-12T18:58:18.474Z,97.96
2023-03-12T19:00:45.739Z,97.66
2023-03-12T19:03:12.995Z,98.29
2023-03-12T19:05:40.096Z,98.47
2023-03-12T19:08:07.108Z,98.17
2023-03-12T19:10:34.327Z,98.40
2023-03-12T19:13:02.154Z,98.72
2023-03-12T19:15:29.396Z,98.65
2023-03-12T19:17:56.415Z,98.98
2023-03-12T19:20:23.710Z,99.21
2023-03-12T19:22:53.221Z,99.53
2023-03-12T19:25:20.727Z,99.37
2023-03-12T19:27:48.217Z,99.01
2023-03-12T19:30:15.728Z,98.71
2023-03-12T19:32:44.524Z,98.93
2023-03-12T19:35:12.738Z,99.28
2023-03-12T19:37:39.884Z,98.95
2023-03-12T19:40:07.645Z,99.01
2023-03-12T19:42:34.672Z,99.24
2023-03-12T19:45:01.779Z,99.00
2023-03-12T19:47:28.811Z,98.91
2023-03-12T19:49:55.925Z,99.25
2023-03-12T19:52:22.921Z,99.19
2023-03-12T19:55:03.353Z,99.36
2023-03-12T19:57:31.824Z,99.63
2023-03-12T19:59:58.998Z,99.41
2023-03-12T20:02:26.725Z,99.29
2023-03-12T20:04:55.595Z,99.52
2023-03-12T20:07:22.678Z,99.60
2023-03-12T20:09:49.787Z,99.81
2023-03-12T20:12:16.771Z,100.00
2023-03-12T20:14:43.848Z,100.00
2023-03-12T20:17:12.483Z,100.00
2023-03-12T20:19:39.649Z,100.00
2023-03-12T20:22:07.737Z,100.00
2023-03-12T20:24:34.924Z,100.00
2023-03-12T20:27:02.057Z,100.00
2023-03-12T20:29:29.094Z,100.00
2023-03-12T20:31:56.775Z,100.00
2023-03-12T20:34:24.044Z,100.00
2023-03-12T20:36:51.080Z,100.00
2023-03-12T20:39:18.224Z,100.00
2023-03-12T20:41:45.348Z,100.00
2023-03-12T20:44:12.336Z,100.00
2023-03-12T20:46:39.460Z,100.00
2023-03-12T20:49:06.524Z,100.00
2023-03-12T20:51:33.609Z,100.00
2023-03-12T20:54:00.747Z,100.00
2023-03-12T20:56:28.085Z,100.00
2023-03-12T20:58:55.128Z,100.00
2023-03-12T21:01:22.335Z,100.00
2023-03-12T21:03:49.553Z,100.00
2023-03-12T21:06:16.758Z,100.00
2023-03-12T21:08:43.933Z,100.00
2023-03-12T21:11:10.960Z,100.00
2023-03-12T21:13:37.928Z,100.00
2023-03-12T21:16:05.893Z,100.00
2023-03-12T21:18:33.549Z,100.00
2023-03-12T21:21:03.875Z,100.00
2023-03-12T21:23:31.463Z,100.00
2023-03-12T21:26:00.617Z,100.00
2023-03-12T21:28:27.953Z,100.00
2023-03-12T21:30:55.740Z,100.00
2023-03-12T21:33:22.917Z,100.00
2023-03-12T21:35:50.046Z,100.00
2023-03-12T21:38:17.182Z,100.00
2023-03-12T21:40:44.250Z,100.00
2023-03-12T21:43:11.407Z,100.00
2023-03-12T21:45:40.670Z,100.00
2023-03-12T21:48:07.885Z,100.00
2023-03-12T21:50:34.953Z,100.00
2023-03-12T21:53:03.536Z,100.00
2023-03-12T21:55:32.138Z,100.00
2023-03-12T21:57:59.300Z,100.00
2023-03-12T22:00:26.384Z,100.00
2023-03-12T22:02:53.660Z,100.00
2023-03-12T22:05:20.842Z,100.00
2023-03-12T22:07:47.920Z,100.00
2023-03-12T22:10:14.883Z,100.00
2023-03-12T22:12:44.725Z,100.00
2023-03-12T22:15:15.015Z,100.00
2023-03-12T22:17:46.857Z,100.00
2023-03-12T22:20:21.520Z,100.00
2023-03-12T22:22:48.688Z,100.00
2023-03-12T22:25:15.946Z,100.00
2023-03-12T22:27:43.007Z,100.00
2023-03-12T22:30:12.672Z,100.00
2023-03-12T22:32:40.421Z,100.00
2023-03-12T22:35:07.708Z,100.00
2023-03-12T22:37:34.703Z,100.00
2023-03-12T22:40:07.183Z,100.00
2023-03-12T22:42:34.584Z,100.00
2023-03-12T22:45:01.667Z,100.00
2023-03-12T22:47:28.695Z,100.00
2023-03-12T22:49:58.676Z,100.00
2023-03-12T22:52:25.664Z,100.00
2023-03-12T22:54:52.830Z,100.00
2023-03-12T22:57:19.840Z,100.00
2023-03-12T22:59:47.861Z,100.00
2023-03-12T23:02:15.126Z,100.00
2023-03-12T23:04:42.342Z,100.00
2023-03-12T23:07:14.966Z,100.00
2023-03-12T23:09:43.437Z,100.00
2023-03-12T23:12:10.447Z,100.00
2023-03-12T23:14:37.529Z,100.00
2023-03-12T23:17:04.564Z,100.00
2023-03-12T23:19:32.516Z,100.00
2023-03-12T23:21:59.704Z,100.00
2023-03-12T23:24:26.708Z,100.00
2023-03-12T23:26:55.864Z,100.00
2023-03-12T23:29:23.258Z,100.00
2023-03-12T23:31:50.458Z,100.00
2023-03-12T23:34:17.916Z,100.00
2023-03-12T23:36:46.420Z,100.00
2023-03-12T23:39:13.740Z,100.00
2023-03-12T23:41:41.207Z,100.00
2023-03-12T23:44:08.572Z,100.00
2023-03-12T23:46:35.718Z,100.00
2023-03-12T23:49:02.710Z,100.00
2023-03-12T23:51:31.568Z,100.00
2023-03-12T23:53:59.878Z,100.00
2023-03-12T23:56:28.181Z,100.00
2023-03-12T23:58:55.284Z,100.00
